Airfield :
LOGIN :

Register | Disclaimer

   EN    FR    IT 

 










Legend :    VFR   Marginal VFR   IFR   Intensive IFR   Very Intensive IFR
Visi :
Ceiling :
>= 8 km
>= 3000ft
5 to 8 km
1000 to 3000 ft
1500m to 5 km
500 to 1000 ft
800 to 1500m
200 to 500 ft
< 800m
< 200 ft
Symbols :   Thunderstorms  Fog  Heavy snow  Heavy precipitations  Wind > 20 kt
SIGMETs :     Misc.  Thunderstorms  Icing  Turbulence  Mountain Waves  Volcanic Ashes







- Airport Elevation : 436 ft
- IATA code : BTS


LZIB - Bratislava

CURRENT METAR :
  • 211630Z 33012KT 9999 FEW013 BKN022 02/M01 Q1012 R13/290295 NOSIG

EXPIRED METARs :
  • 211600Z 34013KT 9999 FEW010 BKN020 02/M01 Q1011 R13/290295 NOSIG
  • 211530Z 32014KT 9999 FEW010 SCT020 BKN031 02/M01 Q1011 R13/910295 NOSIG
  • 211500Z 33011KT 9999 FEW011 BKN017 02/M01 Q1010 R13/910295 NOSIG
  • 211430Z 32014KT 9999 SCT012 BKN015 02/M00 Q1010 R13/910295 NOSIG
  • 211400Z 32012KT 9999 FEW009 BKN012 02/M00 Q1009 R13/910295 NOSIG

TAF TAF LZIB
Valid from the 21 at 12:00 until the 22 at 12:00 UTC


211100Z 2112/2212 04006KT 5000 BR SCT005 OVC012
PROB40
TEMPO 2112/2115 1200 -SN BKN003
BECMG 2115/2117 34015KT 9999 NSW SCT020 BKN050
BECMG 2121/2123 02004KT CAVOK
No reported NOTAMs for that airfield.



MET'MAP, your aeronautical weather chart ! - Copyright ORBIFLY December 2007 - Disclaimer

ORBIFLY MET'MAP TEAM :

Programming & Development : Alexandra Zaïnal
Concept & Development : Baudouin d'Aumeries
Co-Development & Prog : Marc-Olivier Méhu
Technical & hardware support : Manuel Goepfert

Contact : metmap@orbifly.com




SOURCES & CREDITS :

   NOAA